sensor_id;sensor_type;location;lat;lon;timestamp;P1;durP1;ratioP1;P2;durP2;ratioP2
37299;SDS011;23184;51.902;12.836;2023-11-22T00:00:01;17.90;;;7.70;;
37299;SDS011;23184;51.902;12.836;2023-11-22T00:02:28;14.70;;;6.90;;
37299;SDS011;23184;51.902;12.836;2023-11-22T00:04:54;16.17;;;7.50;;
37299;SDS011;23184;51.902;12.836;2023-11-22T00:07:20;15.38;;;6.90;;
37299;SDS011;23184;51.902;12.836;2023-11-22T00:09:46;17.67;;;7.47;;
37299;SDS011;23184;51.902;12.836;2023-11-22T00:12:12;15.40;;;7.15;;
37299;SDS011;23184;51.902;12.836;2023-11-22T00:14:38;13.90;;;6.70;;
37299;SDS011;23184;51.902;12.836;2023-11-22T00:17:04;14.65;;;7.18;;
37299;SDS011;23184;51.902;12.836;2023-11-22T00:19:29;14.13;;;6.60;;
37299;SDS011;23184;51.902;12.836;2023-11-22T00:21:55;14.80;;;6.72;;
37299;SDS011;23184;51.902;12.836;2023-11-22T00:24:21;15.32;;;7.05;;
37299;SDS011;23184;51.902;12.836;2023-11-22T00:26:46;14.52;;;6.32;;
37299;SDS011;23184;51.902;12.836;2023-11-22T00:29:12;13.25;;;6.60;;
37299;SDS011;23184;51.902;12.836;2023-11-22T00:31:37;15.18;;;7.68;;
37299;SDS011;23184;51.902;12.836;2023-11-22T00:34:04;14.70;;;6.85;;
37299;SDS011;23184;51.902;12.836;2023-11-22T00:36:29;16.10;;;6.68;;
37299;SDS011;23184;51.902;12.836;2023-11-22T00:38:55;12.85;;;5.95;;
37299;SDS011;23184;51.902;12.836;2023-11-22T00:41:21;13.65;;;6.30;;
37299;SDS011;23184;51.902;12.836;2023-11-22T00:43:46;13.90;;;6.25;;
37299;SDS011;23184;51.902;12.836;2023-11-22T00:46:12;14.80;;;6.63;;
37299;SDS011;23184;51.902;12.836;2023-11-22T00:48:37;11.48;;;5.57;;
37299;SDS011;23184;51.902;12.836;2023-11-22T00:51:03;12.57;;;6.40;;
37299;SDS011;23184;51.902;12.836;2023-11-22T00:53:33;12.95;;;5.85;;
37299;SDS011;23184;51.902;12.836;2023-11-22T00:56:01;12.73;;;5.60;;
37299;SDS011;23184;51.902;12.836;2023-11-22T00:58:27;12.80;;;5.85;;
37299;SDS011;23184;51.902;12.836;2023-11-22T01:00:52;11.15;;;5.78;;
37299;SDS011;23184;51.902;12.836;2023-11-22T01:03:18;12.75;;;5.65;;
37299;SDS011;23184;51.902;12.836;2023-11-22T01:05:44;11.82;;;5.60;;
37299;SDS011;23184;51.902;12.836;2023-11-22T01:08:11;13.40;;;6.35;;
37299;SDS011;23184;51.902;12.836;2023-11-22T01:10:38;11.68;;;5.78;;
37299;SDS011;23184;51.902;12.836;2023-11-22T01:13:04;11.27;;;5.75;;
37299;SDS011;23184;51.902;12.836;2023-11-22T01:15:30;12.90;;;5.93;;
37299;SDS011;23184;51.902;12.836;2023-11-22T01:17:55;13.38;;;5.65;;
37299;SDS011;23184;51.902;12.836;2023-11-22T01:20:21;11.15;;;5.45;;
37299;SDS011;23184;51.902;12.836;2023-11-22T01:22:48;16.52;;;6.18;;
37299;SDS011;23184;51.902;12.836;2023-11-22T01:25:14;10.23;;;5.32;;
37299;SDS011;23184;51.902;12.836;2023-11-22T01:27:39;14.63;;;5.75;;
37299;SDS011;23184;51.902;12.836;2023-11-22T01:30:05;12.25;;;5.90;;
37299;SDS011;23184;51.902;12.836;2023-11-22T01:32:32;24.70;;;8.20;;
37299;SDS011;23184;51.902;12.836;2023-11-22T01:34:59;13.25;;;5.20;;
37299;SDS011;23184;51.902;12.836;2023-11-22T01:37:25;12.00;;;5.32;;
37299;SDS011;23184;51.902;12.836;2023-11-22T01:39:52;10.65;;;5.80;;
37299;SDS011;23184;51.902;12.836;2023-11-22T01:42:19;15.25;;;7.25;;
37299;SDS011;23184;51.902;12.836;2023-11-22T01:44:45;12.18;;;5.22;;
37299;SDS011;23184;51.902;12.836;2023-11-22T01:47:11;11.02;;;5.25;;
37299;SDS011;23184;51.902;12.836;2023-11-22T01:49:36;12.82;;;5.80;;
37299;SDS011;23184;51.902;12.836;2023-11-22T01:52:02;14.38;;;6.63;;
37299;SDS011;23184;51.902;12.836;2023-11-22T01:54:29;11.00;;;5.05;;
37299;SDS011;23184;51.902;12.836;2023-11-22T01:56:56;13.13;;;5.38;;
37299;SDS011;23184;51.902;12.836;2023-11-22T01:59:22;12.18;;;5.30;;
37299;SDS011;23184;51.902;12.836;2023-11-22T02:01:48;11.75;;;4.75;;
37299;SDS011;23184;51.902;12.836;2023-11-22T02:04:14;10.13;;;5.07;;
37299;SDS011;23184;51.902;12.836;2023-11-22T02:06:40;13.30;;;5.88;;
37299;SDS011;23184;51.902;12.836;2023-11-22T02:09:06;12.32;;;5.20;;
37299;SDS011;23184;51.902;12.836;2023-11-22T02:11:32;12.88;;;5.78;;
37299;SDS011;23184;51.902;12.836;2023-11-22T02:13:58;13.48;;;5.50;;
37299;SDS011;23184;51.902;12.836;2023-11-22T02:16:23;13.80;;;6.15;;
37299;SDS011;23184;51.902;12.836;2023-11-22T02:18:49;10.32;;;5.18;;
37299;SDS011;23184;51.902;12.836;2023-11-22T02:21:18;10.45;;;5.30;;
37299;SDS011;23184;51.902;12.836;2023-11-22T02:23:44;14.65;;;6.50;;
37299;SDS011;23184;51.902;12.836;2023-11-22T02:26:09;17.52;;;6.97;;
37299;SDS011;23184;51.902;12.836;2023-11-22T02:28:35;11.57;;;6.63;;
37299;SDS011;23184;51.902;12.836;2023-11-22T02:31:00;13.05;;;5.60;;
37299;SDS011;23184;51.902;12.836;2023-11-22T02:33:26;10.32;;;5.32;;
37299;SDS011;23184;51.902;12.836;2023-11-22T02:35:51;13.65;;;6.53;;
37299;SDS011;23184;51.902;12.836;2023-11-22T02:38:17;16.85;;;6.18;;
37299;SDS011;23184;51.902;12.836;2023-11-22T02:40:45;10.80;;;5.18;;
37299;SDS011;23184;51.902;12.836;2023-11-22T02:43:11;11.50;;;5.63;;
37299;SDS011;23184;51.902;12.836;2023-11-22T02:45:36;10.13;;;4.65;;
37299;SDS011;23184;51.902;12.836;2023-11-22T02:48:03;10.85;;;5.15;;
37299;SDS011;23184;51.902;12.836;2023-11-22T02:50:29;11.68;;;4.68;;
37299;SDS011;23184;51.902;12.836;2023-11-22T02:52:56;11.20;;;4.85;;
37299;SDS011;23184;51.902;12.836;2023-11-22T02:55:23;16.92;;;5.50;;
37299;SDS011;23184;51.902;12.836;2023-11-22T02:57:49;10.75;;;5.13;;
37299;SDS011;23184;51.902;12.836;2023-11-22T03:00:16;9.52;;;4.88;;
37299;SDS011;23184;51.902;12.836;2023-11-22T03:02:43;10.50;;;4.80;;
37299;SDS011;23184;51.902;12.836;2023-11-22T03:05:11;13.40;;;6.22;;
37299;SDS011;23184;51.902;12.836;2023-11-22T03:07:38;10.20;;;5.45;;
37299;SDS011;23184;51.902;12.836;2023-11-22T03:10:05;11.98;;;5.20;;
37299;SDS011;23184;51.902;12.836;2023-11-22T03:12:32;9.82;;;4.63;;
37299;SDS011;23184;51.902;12.836;2023-11-22T03:15:16;10.00;;;5.05;;
37299;SDS011;23184;51.902;12.836;2023-11-22T03:17:42;10.50;;;4.85;;
37299;SDS011;23184;51.902;12.836;2023-11-22T03:20:09;11.27;;;4.85;;
37299;SDS011;23184;51.902;12.836;2023-11-22T03:22:36;10.73;;;4.95;;
37299;SDS011;23184;51.902;12.836;2023-11-22T03:25:02;10.57;;;4.72;;
37299;SDS011;23184;51.902;12.836;2023-11-22T03:27:28;9.05;;;4.80;;
37299;SDS011;23184;51.902;12.836;2023-11-22T03:29:54;10.77;;;4.75;;
37299;SDS011;23184;51.902;12.836;2023-11-22T03:32:20;8.63;;;4.45;;
37299;SDS011;23184;51.902;12.836;2023-11-22T03:34:45;9.45;;;4.88;;
37299;SDS011;23184;51.902;12.836;2023-11-22T03:37:11;9.75;;;4.45;;
37299;SDS011;23184;51.902;12.836;2023-11-22T03:39:36;10.38;;;4.63;;
37299;SDS011;23184;51.902;12.836;2023-11-22T03:42:02;9.80;;;4.60;;
37299;SDS011;23184;51.902;12.836;2023-11-22T03:44:28;11.18;;;4.63;;
37299;SDS011;23184;51.902;12.836;2023-11-22T03:46:54;9.65;;;4.45;;
37299;SDS011;23184;51.902;12.836;2023-11-22T03:49:20;11.40;;;5.40;;
37299;SDS011;23184;51.902;12.836;2023-11-22T03:51:46;12.30;;;4.50;;
37299;SDS011;23184;51.902;12.836;2023-11-22T03:54:12;10.35;;;4.85;;
37299;SDS011;23184;51.902;12.836;2023-11-22T03:56:38;11.35;;;5.68;;
37299;SDS011;23184;51.902;12.836;2023-11-22T03:59:04;10.82;;;4.80;;
37299;SDS011;23184;51.902;12.836;2023-11-22T04:01:30;10.73;;;4.88;;
37299;SDS011;23184;51.902;12.836;2023-11-22T04:03:56;11.65;;;5.00;;
37299;SDS011;23184;51.902;12.836;2023-11-22T04:06:21;10.52;;;5.25;;
37299;SDS011;23184;51.902;12.836;2023-11-22T04:08:48;9.93;;;4.53;;
37299;SDS011;23184;51.902;12.836;2023-11-22T04:11:13;8.60;;;4.35;;
37299;SDS011;23184;51.902;12.836;2023-11-22T04:13:40;11.90;;;4.93;;
37299;SDS011;23184;51.902;12.836;2023-11-22T04:16:09;12.75;;;4.50;;
37299;SDS011;23184;51.902;12.836;2023-11-22T04:18:40;10.93;;;4.68;;
37299;SDS011;23184;51.902;12.836;2023-11-22T04:21:07;9.43;;;4.32;;
37299;SDS011;23184;51.902;12.836;2023-11-22T04:23:32;8.05;;;4.15;;
37299;SDS011;23184;51.902;12.836;2023-11-22T04:26:01;11.95;;;5.55;;
37299;SDS011;23184;51.902;12.836;2023-11-22T04:28:27;11.77;;;5.20;;
37299;SDS011;23184;51.902;12.836;2023-11-22T04:30:54;12.18;;;5.10;;
37299;SDS011;23184;51.902;12.836;2023-11-22T04:33:21;12.35;;;5.18;;
37299;SDS011;23184;51.902;12.836;2023-11-22T04:35:48;8.65;;;4.32;;
37299;SDS011;23184;51.902;12.836;2023-11-22T04:38:13;10.65;;;4.82;;
37299;SDS011;23184;51.902;12.836;2023-11-22T04:40:39;8.05;;;4.07;;
37299;SDS011;23184;51.902;12.836;2023-11-22T04:43:05;10.57;;;4.57;;
37299;SDS011;23184;51.902;12.836;2023-11-22T04:45:30;11.82;;;4.90;;
37299;SDS011;23184;51.902;12.836;2023-11-22T04:47:56;10.05;;;4.93;;
37299;SDS011;23184;51.902;12.836;2023-11-22T04:50:25;10.68;;;5.30;;
37299;SDS011;23184;51.902;12.836;2023-11-22T04:52:50;13.10;;;6.53;;
37299;SDS011;23184;51.902;12.836;2023-11-22T04:55:16;11.55;;;4.82;;
37299;SDS011;23184;51.902;12.836;2023-11-22T04:57:41;10.07;;;4.68;;
37299;SDS011;23184;51.902;12.836;2023-11-22T05:00:07;10.55;;;4.93;;
37299;SDS011;23184;51.902;12.836;2023-11-22T05:02:34;9.85;;;4.78;;
37299;SDS011;23184;51.902;12.836;2023-11-22T05:05:00;10.13;;;4.68;;
37299;SDS011;23184;51.902;12.836;2023-11-22T05:07:25;10.15;;;4.55;;
37299;SDS011;23184;51.902;12.836;2023-11-22T05:09:51;9.38;;;4.32;;
37299;SDS011;23184;51.902;12.836;2023-11-22T05:12:16;9.43;;;5.15;;
37299;SDS011;23184;51.902;12.836;2023-11-22T05:14:42;10.43;;;5.45;;
37299;SDS011;23184;51.902;12.836;2023-11-22T05:17:08;8.05;;;3.92;;
37299;SDS011;23184;51.902;12.836;2023-11-22T05:19:34;9.85;;;4.75;;
37299;SDS011;23184;51.902;12.836;2023-11-22T05:22:00;10.32;;;4.60;;
37299;SDS011;23184;51.902;12.836;2023-11-22T05:24:25;8.98;;;4.32;;
37299;SDS011;23184;51.902;12.836;2023-11-22T05:26:51;9.98;;;4.63;;
37299;SDS011;23184;51.902;12.836;2023-11-22T05:29:17;10.95;;;4.97;;
37299;SDS011;23184;51.902;12.836;2023-11-22T05:31:42;8.57;;;4.72;;
37299;SDS011;23184;51.902;12.836;2023-11-22T05:34:08;9.82;;;4.63;;
37299;SDS011;23184;51.902;12.836;2023-11-22T05:36:34;11.63;;;4.65;;
37299;SDS011;23184;51.902;12.836;2023-11-22T05:39:00;11.15;;;5.20;;
37299;SDS011;23184;51.902;12.836;2023-11-22T05:41:25;12.65;;;5.38;;
37299;SDS011;23184;51.902;12.836;2023-11-22T05:43:51;12.50;;;5.32;;
37299;SDS011;23184;51.902;12.836;2023-11-22T05:46:18;11.68;;;5.25;;
37299;SDS011;23184;51.902;12.836;2023-11-22T05:48:50;8.50;;;4.32;;
37299;SDS011;23184;51.902;12.836;2023-11-22T05:51:16;10.75;;;5.00;;
37299;SDS011;23184;51.902;12.836;2023-11-22T05:53:42;10.80;;;4.47;;
37299;SDS011;23184;51.902;12.836;2023-11-22T05:56:07;10.90;;;4.88;;
37299;SDS011;23184;51.902;12.836;2023-11-22T05:58:36;18.15;;;7.40;;
37299;SDS011;23184;51.902;12.836;2023-11-22T06:01:04;12.95;;;5.32;;
37299;SDS011;23184;51.902;12.836;2023-11-22T06:03:31;11.02;;;5.85;;
37299;SDS011;23184;51.902;12.836;2023-11-22T06:05:57;9.35;;;4.30;;
37299;SDS011;23184;51.902;12.836;2023-11-22T06:08:23;10.60;;;5.07;;
37299;SDS011;23184;51.902;12.836;2023-11-22T06:10:48;9.68;;;4.75;;
37299;SDS011;23184;51.902;12.836;2023-11-22T06:13:14;10.10;;;4.53;;
37299;SDS011;23184;51.902;12.836;2023-11-22T06:15:40;8.98;;;4.68;;
37299;SDS011;23184;51.902;12.836;2023-11-22T06:18:05;12.88;;;5.47;;
37299;SDS011;23184;51.902;12.836;2023-11-22T06:20:31;8.32;;;4.03;;
37299;SDS011;23184;51.902;12.836;2023-11-22T06:22:56;7.70;;;4.15;;
37299;SDS011;23184;51.902;12.836;2023-11-22T06:25:22;8.93;;;4.43;;
37299;SDS011;23184;51.902;12.836;2023-11-22T06:27:48;7.45;;;4.38;;
37299;SDS011;23184;51.902;12.836;2023-11-22T06:30:13;19.48;;;6.25;;
37299;SDS011;23184;51.902;12.836;2023-11-22T06:32:39;123.05;;;48.63;;
37299;SDS011;23184;51.902;12.836;2023-11-22T06:35:07;171.25;;;67.35;;
37299;SDS011;23184;51.902;12.836;2023-11-22T06:37:34;209.02;;;91.95;;
37299;SDS011;23184;51.902;12.836;2023-11-22T06:40:00;109.00;;;51.55;;
37299;SDS011;23184;51.902;12.836;2023-11-22T06:42:25;25.00;;;14.90;;
37299;SDS011;23184;51.902;12.836;2023-11-22T06:44:51;39.30;;;12.45;;
37299;SDS011;23184;51.902;12.836;2023-11-22T06:47:18;16.88;;;9.50;;
37299;SDS011;23184;51.902;12.836;2023-11-22T06:49:44;14.50;;;8.57;;
37299;SDS011;23184;51.902;12.836;2023-11-22T06:52:09;15.73;;;9.43;;
37299;SDS011;23184;51.902;12.836;2023-11-22T06:54:35;12.00;;;6.15;;
37299;SDS011;23184;51.902;12.836;2023-11-22T06:57:01;10.63;;;5.20;;
37299;SDS011;23184;51.902;12.836;2023-11-22T06:59:27;11.48;;;4.90;;
37299;SDS011;23184;51.902;12.836;2023-11-22T07:01:53;8.57;;;5.28;;
37299;SDS011;23184;51.902;12.836;2023-11-22T07:04:20;11.10;;;4.25;;
37299;SDS011;23184;51.902;12.836;2023-11-22T07:06:47;9.65;;;4.50;;
37299;SDS011;23184;51.902;12.836;2023-11-22T07:09:13;11.38;;;5.18;;
37299;SDS011;23184;51.902;12.836;2023-11-22T07:11:39;13.32;;;5.30;;
37299;SDS011;23184;51.902;12.836;2023-11-22T07:14:05;10.57;;;4.95;;
37299;SDS011;23184;51.902;12.836;2023-11-22T07:16:30;12.43;;;5.03;;
37299;SDS011;23184;51.902;12.836;2023-11-22T07:18:59;11.15;;;5.07;;
37299;SDS011;23184;51.902;12.836;2023-11-22T07:21:28;11.82;;;5.53;;
37299;SDS011;23184;51.902;12.836;2023-11-22T07:23:55;11.05;;;5.20;;
37299;SDS011;23184;51.902;12.836;2023-11-22T07:26:20;12.57;;;5.05;;
37299;SDS011;23184;51.902;12.836;2023-11-22T07:28:46;9.93;;;5.53;;
37299;SDS011;23184;51.902;12.836;2023-11-22T07:31:12;11.23;;;4.75;;
37299;SDS011;23184;51.902;12.836;2023-11-22T07:33:37;12.13;;;4.90;;
37299;SDS011;23184;51.902;12.836;2023-11-22T07:36:03;10.38;;;4.78;;
37299;SDS011;23184;51.902;12.836;2023-11-22T07:38:29;8.57;;;4.53;;
37299;SDS011;23184;51.902;12.836;2023-11-22T07:40:56;13.23;;;5.28;;
37299;SDS011;23184;51.902;12.836;2023-11-22T07:43:22;10.88;;;5.38;;
37299;SDS011;23184;51.902;12.836;2023-11-22T07:45:48;11.70;;;5.47;;
37299;SDS011;23184;51.902;12.836;2023-11-22T07:48:15;11.38;;;4.85;;
37299;SDS011;23184;51.902;12.836;2023-11-22T07:50:41;11.57;;;4.80;;
37299;SDS011;23184;51.902;12.836;2023-11-22T07:53:10;13.38;;;5.30;;
37299;SDS011;23184;51.902;12.836;2023-11-22T07:55:37;10.77;;;4.88;;
37299;SDS011;23184;51.902;12.836;2023-11-22T07:58:03;10.23;;;4.53;;
37299;SDS011;23184;51.902;12.836;2023-11-22T08:00:31;9.75;;;4.40;;
37299;SDS011;23184;51.902;12.836;2023-11-22T08:02:58;11.20;;;5.13;;
37299;SDS011;23184;51.902;12.836;2023-11-22T08:05:26;9.75;;;4.38;;
37299;SDS011;23184;51.902;12.836;2023-11-22T08:07:53;7.80;;;4.00;;
37299;SDS011;23184;51.902;12.836;2023-11-22T08:10:18;11.15;;;4.32;;
37299;SDS011;23184;51.902;12.836;2023-11-22T08:12:44;9.50;;;4.80;;
37299;SDS011;23184;51.902;12.836;2023-11-22T08:15:11;8.93;;;4.18;;
37299;SDS011;23184;51.902;12.836;2023-11-22T08:17:39;9.45;;;4.78;;
37299;SDS011;23184;51.902;12.836;2023-11-22T08:20:05;10.32;;;4.78;;
37299;SDS011;23184;51.902;12.836;2023-11-22T08:22:34;13.40;;;4.97;;
37299;SDS011;23184;51.902;12.836;2023-11-22T08:25:03;12.10;;;5.07;;
37299;SDS011;23184;51.902;12.836;2023-11-22T08:27:29;10.45;;;4.78;;
37299;SDS011;23184;51.902;12.836;2023-11-22T08:29:55;9.75;;;5.03;;
37299;SDS011;23184;51.902;12.836;2023-11-22T08:32:20;9.57;;;4.90;;
37299;SDS011;23184;51.902;12.836;2023-11-22T08:34:48;12.48;;;5.63;;
37299;SDS011;23184;51.902;12.836;2023-11-22T08:37:14;9.52;;;5.03;;
37299;SDS011;23184;51.902;12.836;2023-11-22T08:39:40;24.77;;;17.60;;
37299;SDS011;23184;51.902;12.836;2023-11-22T08:42:06;12.48;;;5.63;;
37299;SDS011;23184;51.902;12.836;2023-11-22T08:44:34;12.15;;;4.68;;
37299;SDS011;23184;51.902;12.836;2023-11-22T08:47:03;8.75;;;4.60;;
37299;SDS011;23184;51.902;12.836;2023-11-22T08:49:29;7.88;;;4.63;;
37299;SDS011;23184;51.902;12.836;2023-11-22T08:51:58;9.55;;;4.88;;
37299;SDS011;23184;51.902;12.836;2023-11-22T08:54:24;8.18;;;4.72;;
37299;SDS011;23184;51.902;12.836;2023-11-22T08:56:53;7.88;;;5.03;;
37299;SDS011;23184;51.902;12.836;2023-11-22T08:59:21;8.98;;;4.55;;
37299;SDS011;23184;51.902;12.836;2023-11-22T09:01:46;7.53;;;4.43;;
37299;SDS011;23184;51.902;12.836;2023-11-22T09:04:12;8.90;;;5.00;;
37299;SDS011;23184;51.902;12.836;2023-11-22T09:06:38;10.20;;;5.50;;
37299;SDS011;23184;51.902;12.836;2023-11-22T09:09:04;8.88;;;5.30;;
37299;SDS011;23184;51.902;12.836;2023-11-22T09:11:30;9.85;;;5.10;;
37299;SDS011;23184;51.902;12.836;2023-11-22T09:13:56;11.18;;;5.47;;
37299;SDS011;23184;51.902;12.836;2023-11-22T09:16:22;9.18;;;5.70;;
37299;SDS011;23184;51.902;12.836;2023-11-22T09:18:50;10.45;;;5.10;;
37299;SDS011;23184;51.902;12.836;2023-11-22T09:21:16;9.85;;;5.00;;
37299;SDS011;23184;51.902;12.836;2023-11-22T09:23:45;9.02;;;4.70;;
37299;SDS011;23184;51.902;12.836;2023-11-22T09:26:12;9.57;;;4.97;;
37299;SDS011;23184;51.902;12.836;2023-11-22T09:28:39;10.23;;;5.00;;
37299;SDS011;23184;51.902;12.836;2023-11-22T09:31:08;9.60;;;4.90;;
37299;SDS011;23184;51.902;12.836;2023-11-22T09:33:33;11.48;;;5.35;;
37299;SDS011;23184;51.902;12.836;2023-11-22T09:35:59;10.35;;;5.32;;
37299;SDS011;23184;51.902;12.836;2023-11-22T09:38:24;11.77;;;5.40;;
37299;SDS011;23184;51.902;12.836;2023-11-22T09:40:50;11.80;;;5.57;;
37299;SDS011;23184;51.902;12.836;2023-11-22T09:43:16;10.65;;;5.28;;
37299;SDS011;23184;51.902;12.836;2023-11-22T09:45:43;9.13;;;4.95;;
37299;SDS011;23184;51.902;12.836;2023-11-22T09:48:16;11.43;;;5.53;;
37299;SDS011;23184;51.902;12.836;2023-11-22T09:53:32;11.55;;;5.32;;
37299;SDS011;23184;51.902;12.836;2023-11-22T09:56:05;11.73;;;5.45;;
37299;SDS011;23184;51.902;12.836;2023-11-22T09:58:33;11.07;;;5.32;;
37299;SDS011;23184;51.902;12.836;2023-11-22T10:01:00;10.45;;;5.25;;
37299;SDS011;23184;51.902;12.836;2023-11-22T10:03:26;11.60;;;5.35;;
37299;SDS011;23184;51.902;12.836;2023-11-22T10:05:56;12.43;;;5.95;;
37299;SDS011;23184;51.902;12.836;2023-11-22T10:08:24;17.63;;;6.30;;
37299;SDS011;23184;51.902;12.836;2023-11-22T10:10:50;13.02;;;5.43;;
37299;SDS011;23184;51.902;12.836;2023-11-22T10:13:16;10.63;;;5.03;;
37299;SDS011;23184;51.902;12.836;2023-11-22T10:15:45;10.45;;;5.10;;
37299;SDS011;23184;51.902;12.836;2023-11-22T10:18:12;11.55;;;5.47;;
37299;SDS011;23184;51.902;12.836;2023-11-22T10:20:39;10.77;;;5.35;;
37299;SDS011;23184;51.902;12.836;2023-11-22T10:23:10;10.23;;;5.05;;
37299;SDS011;23184;51.902;12.836;2023-11-22T10:25:37;9.18;;;5.15;;
37299;SDS011;23184;51.902;12.836;2023-11-22T10:28:09;10.13;;;5.22;;
37299;SDS011;23184;51.902;12.836;2023-11-22T10:30:34;12.60;;;5.47;;
37299;SDS011;23184;51.902;12.836;2023-11-22T10:33:00;10.77;;;5.35;;
37299;SDS011;23184;51.902;12.836;2023-11-22T10:35:27;9.30;;;5.22;;
37299;SDS011;23184;51.902;12.836;2023-11-22T10:37:53;10.70;;;5.57;;
37299;SDS011;23184;51.902;12.836;2023-11-22T10:40:18;9.10;;;5.00;;
37299;SDS011;23184;51.902;12.836;2023-11-22T10:42:44;12.60;;;5.18;;
37299;SDS011;23184;51.902;12.836;2023-11-22T10:45:14;11.15;;;5.00;;
37299;SDS011;23184;51.902;12.836;2023-11-22T10:47:42;10.13;;;5.20;;
37299;SDS011;23184;51.902;12.836;2023-11-22T10:50:08;9.45;;;5.13;;
37299;SDS011;23184;51.902;12.836;2023-11-22T10:52:37;12.15;;;5.40;;
37299;SDS011;23184;51.902;12.836;2023-11-22T10:55:06;10.13;;;4.72;;
37299;SDS011;23184;51.902;12.836;2023-11-22T10:57:32;10.43;;;5.38;;
37299;SDS011;23184;51.902;12.836;2023-11-22T11:00:04;9.75;;;4.90;;
37299;SDS011;23184;51.902;12.836;2023-11-22T11:02:33;10.27;;;5.60;;
37299;SDS011;23184;51.902;12.836;2023-11-22T11:05:03;11.60;;;5.70;;
37299;SDS011;23184;51.902;12.836;2023-11-22T11:07:37;10.23;;;5.43;;
37299;SDS011;23184;51.902;12.836;2023-11-22T11:10:08;9.25;;;4.88;;
37299;SDS011;23184;51.902;12.836;2023-11-22T11:12:36;10.75;;;5.82;;
37299;SDS011;23184;51.902;12.836;2023-11-22T11:15:02;10.27;;;4.70;;
37299;SDS011;23184;51.902;12.836;2023-11-22T11:17:29;14.00;;;5.75;;
37299;SDS011;23184;51.902;12.836;2023-11-22T11:19:57;12.10;;;5.47;;
37299;SDS011;23184;51.902;12.836;2023-11-22T11:22:23;10.85;;;5.63;;
37299;SDS011;23184;51.902;12.836;2023-11-22T11:24:48;11.00;;;6.15;;
37299;SDS011;23184;51.902;12.836;2023-11-22T11:27:25;12.13;;;5.90;;
37299;SDS011;23184;51.902;12.836;2023-11-22T11:29:51;11.02;;;5.53;;
37299;SDS011;23184;51.902;12.836;2023-11-22T11:32:35;9.40;;;5.00;;
37299;SDS011;23184;51.902;12.836;2023-11-22T11:35:02;10.43;;;5.53;;
37299;SDS011;23184;51.902;12.836;2023-11-22T11:37:31;9.80;;;5.15;;
37299;SDS011;23184;51.902;12.836;2023-11-22T11:39:57;13.95;;;6.25;;
37299;SDS011;23184;51.902;12.836;2023-11-22T11:42:23;12.00;;;5.93;;
37299;SDS011;23184;51.902;12.836;2023-11-22T11:47:24;11.57;;;5.72;;
37299;SDS011;23184;51.902;12.836;2023-11-22T11:49:49;11.27;;;5.40;;
37299;SDS011;23184;51.902;12.836;2023-11-22T11:52:15;11.43;;;5.50;;
37299;SDS011;23184;51.902;12.836;2023-11-22T11:54:41;11.25;;;5.68;;
37299;SDS011;23184;51.902;12.836;2023-11-22T11:57:07;10.98;;;5.93;;
37299;SDS011;23184;51.902;12.836;2023-11-22T11:59:33;9.77;;;5.15;;
37299;SDS011;23184;51.902;12.836;2023-11-22T12:02:00;9.45;;;5.65;;
37299;SDS011;23184;51.902;12.836;2023-11-22T12:04:25;9.52;;;5.40;;
37299;SDS011;23184;51.902;12.836;2023-11-22T12:06:51;9.98;;;5.40;;
37299;SDS011;23184;51.902;12.836;2023-11-22T12:09:23;12.63;;;5.68;;
37299;SDS011;23184;51.902;12.836;2023-11-22T12:11:50;11.60;;;5.40;;
37299;SDS011;23184;51.902;12.836;2023-11-22T12:14:18;10.23;;;6.13;;
37299;SDS011;23184;51.902;12.836;2023-11-22T12:16:51;10.95;;;5.63;;
37299;SDS011;23184;51.902;12.836;2023-11-22T12:19:22;8.35;;;5.00;;
37299;SDS011;23184;51.902;12.836;2023-11-22T12:21:49;12.80;;;5.78;;
37299;SDS011;23184;51.902;12.836;2023-11-22T12:24:15;13.93;;;6.60;;
37299;SDS011;23184;51.902;12.836;2023-11-22T12:26:44;12.20;;;6.03;;
37299;SDS011;23184;51.902;12.836;2023-11-22T12:29:18;10.85;;;5.95;;
37299;SDS011;23184;51.902;12.836;2023-11-22T12:31:48;13.15;;;6.28;;
37299;SDS011;23184;51.902;12.836;2023-11-22T12:34:22;10.45;;;5.72;;
37299;SDS011;23184;51.902;12.836;2023-11-22T12:36:48;11.32;;;6.20;;
37299;SDS011;23184;51.902;12.836;2023-11-22T12:39:14;9.98;;;5.50;;
37299;SDS011;23184;51.902;12.836;2023-11-22T12:41:43;12.10;;;5.85;;
37299;SDS011;23184;51.902;12.836;2023-11-22T12:44:12;11.98;;;5.72;;
37299;SDS011;23184;51.902;12.836;2023-11-22T12:46:48;13.50;;;6.53;;
37299;SDS011;23184;51.902;12.836;2023-11-22T12:49:26;11.93;;;6.07;;
37299;SDS011;23184;51.902;12.836;2023-11-22T12:51:53;12.23;;;6.20;;
37299;SDS011;23184;51.902;12.836;2023-11-22T12:54:19;11.27;;;5.35;;
37299;SDS011;23184;51.902;12.836;2023-11-22T12:56:52;13.23;;;6.25;;
37299;SDS011;23184;51.902;12.836;2023-11-22T12:59:24;12.48;;;6.07;;
37299;SDS011;23184;51.902;12.836;2023-11-22T13:01:53;9.93;;;5.03;;
37299;SDS011;23184;51.902;12.836;2023-11-22T13:04:19;11.60;;;5.63;;
37299;SDS011;23184;51.902;12.836;2023-11-22T13:06:45;13.13;;;6.15;;
37299;SDS011;23184;51.902;12.836;2023-11-22T13:09:10;13.27;;;6.15;;
37299;SDS011;23184;51.902;12.836;2023-11-22T13:11:42;10.65;;;5.55;;
37299;SDS011;23184;51.902;12.836;2023-11-22T13:14:08;14.40;;;6.25;;
37299;SDS011;23184;51.902;12.836;2023-11-22T13:16:34;12.98;;;6.03;;
37299;SDS011;23184;51.902;12.836;2023-11-22T13:19:02;8.73;;;5.43;;
37299;SDS011;23184;51.902;12.836;2023-11-22T13:21:27;10.90;;;5.50;;
37299;SDS011;23184;51.902;12.836;2023-11-22T13:23:53;12.43;;;5.43;;
37299;SDS011;23184;51.902;12.836;2023-11-22T13:26:20;8.70;;;5.00;;
37299;SDS011;23184;51.902;12.836;2023-11-22T13:28:46;10.05;;;5.43;;
37299;SDS011;23184;51.902;12.836;2023-11-22T13:31:11;9.50;;;5.30;;
37299;SDS011;23184;51.902;12.836;2023-11-22T13:33:37;10.80;;;4.93;;
37299;SDS011;23184;51.902;12.836;2023-11-22T13:36:03;9.15;;;5.47;;
37299;SDS011;23184;51.902;12.836;2023-11-22T13:38:30;9.95;;;4.75;;
37299;SDS011;23184;51.902;12.836;2023-11-22T13:40:55;10.85;;;5.25;;
37299;SDS011;23184;51.902;12.836;2023-11-22T13:43:21;11.98;;;6.15;;
37299;SDS011;23184;51.902;12.836;2023-11-22T13:45:46;11.07;;;5.20;;
37299;SDS011;23184;51.902;12.836;2023-11-22T13:48:12;11.77;;;5.68;;
37299;SDS011;23184;51.902;12.836;2023-11-22T13:50:38;12.70;;;5.57;;
37299;SDS011;23184;51.902;12.836;2023-11-22T13:53:03;9.30;;;4.93;;
37299;SDS011;23184;51.902;12.836;2023-11-22T13:55:29;13.18;;;5.90;;
37299;SDS011;23184;51.902;12.836;2023-11-22T13:57:56;12.10;;;5.85;;
37299;SDS011;23184;51.902;12.836;2023-11-22T14:00:24;11.52;;;5.68;;
37299;SDS011;23184;51.902;12.836;2023-11-22T14:02:54;10.57;;;5.47;;
37299;SDS011;23184;51.902;12.836;2023-11-22T14:05:30;9.85;;;5.05;;
37299;SDS011;23184;51.902;12.836;2023-11-22T14:07:57;9.45;;;4.80;;
37299;SDS011;23184;51.902;12.836;2023-11-22T14:10:23;12.57;;;5.00;;
37299;SDS011;23184;51.902;12.836;2023-11-22T14:12:49;9.90;;;5.18;;
37299;SDS011;23184;51.902;12.836;2023-11-22T14:15:16;12.73;;;6.65;;
37299;SDS011;23184;51.902;12.836;2023-11-22T14:17:42;10.27;;;5.70;;
37299;SDS011;23184;51.902;12.836;2023-11-22T14:20:11;11.30;;;6.18;;
37299;SDS011;23184;51.902;12.836;2023-11-22T14:22:38;13.13;;;6.97;;
37299;SDS011;23184;51.902;12.836;2023-11-22T14:25:05;12.95;;;6.40;;